Garber, Iowa
Current Conditions -  °F | °C
As of 9:35 PM on Monday 22 Dec 2014 (Local Time) from KPDC Reporting Station
Haze Haze  
Wind Chill: 33°   Ceiling: 600
Heat Index: 37°   Visibility: 3mi
Dew Point: 35°   Wind: 5mph
Humidity: 93%   Direction: 80°E
Pressure: 29.56"   Gusts: NA
Location:  42.74°N, 91.26°W
Report Text: KPDC 230335Z AUTO 08004KT 3SM BR OVC006 03/02 A2956 RMK AO2 T00260016
Loading
Personal Weather Stations






























Interactive Weather Map New forecast layout! Learn more

10-Day Weather Forecast

Advertisements
Track Severe Weather on mobile